Latest Weather Observations for Sydney Airport

IDN60801

Issued at 8:35 pm EST Sunday 20 April 2014 (issued every 30 minutes, with the page automatically refreshed every 10 minutes)

About weather observations | Map of weather stations | Latest weather observations for NSW | Other Formats
Station Details ID: 066037 Name: SYDNEY AIRPORT AMO Lat: -33.95 Lon: 151.17 Height: 6.0 m
Data from the previous 72 hours. | See also: Recent months at Sydney Airport
Date/Time
EST
Temp
°C
App
Temp
°C
Dew
Point
Rel
Hum
%
Delta-T
°C
Wind Press
QNH
hPa
Press
MSL
hPa
Rain
since 9 am
mm
Dir
 
Spd
km/h
Gust
km/h
Spd
kts
Gust
kts
20/08:30pm 18.7 20.4 15.3 80 2.0 NE 0 0 0 0 1016.6 - 0.0
20/08:00pm 20.5 20.5 14.3 67 3.6 NNE 7 9 4 5 1016.4 1016.4 0.0
20/07:30pm 20.6 20.2 14.2 66 3.7 NNE 9 11 5 6 1016.1 - 0.0
20/07:00pm 20.9 20.5 14.2 65 3.9 NNE 9 15 5 8 1015.9 1015.9 0.0
20/06:30pm 20.4 19.2 14.0 66 3.7 NE 13 17 7 9 1015.6 - 0.0
20/06:00pm 20.7 18.7 13.9 65 3.9 NE 17 20 9 11 1015.3 1015.3 0.0
20/05:30pm 21.0 18.6 13.9 64 4.1 NE 19 26 10 14 1015.1 - 0.0
20/05:00pm 21.5 18.4 13.3 59 4.7 NE 22 28 12 15 1014.8 1014.8 0.0
20/04:30pm 21.8 18.2 12.9 57 5.1 NNE 24 28 13 15 1014.7 - 0.0
20/04:00pm 22.2 18.8 12.5 54 5.5 NE 22 30 12 16 1014.5 1014.5 0.0
20/03:30pm 22.9 19.8 12.1 50 6.1 NE 20 30 11 16 1014.5 - 0.0
20/03:00pm 22.4 18.5 12.1 52 5.8 ENE 24 30 13 16 1014.6 1014.6 0.0
20/02:30pm 22.2 17.8 11.6 51 5.9 ENE 26 33 14 18 1014.6 - 0.0
20/02:00pm 23.5 20.9 10.7 44 7.1 NE 15 22 8 12 1014.8 1014.8 0.0
20/01:30pm 22.7 20.9 10.7 46 6.6 SE 11 17 6 9 1014.7 - 0.0
20/01:00pm 23.2 21.5 10.0 43 7.2 E 9 15 5 8 1015.1 1015.1 0.0
20/12:30pm 23.0 20.1 9.7 42 7.2 NNW 15 22 8 12 1015.7 - 0.0
20/12:00pm 22.7 21.0 9.8 44 7.0 SSE 9 13 5 7 1016.2 1016.2 0.0
20/11:30am 21.1 19.9 10.4 50 5.8 S 7 11 4 6 1016.9 - 0.0
20/11:00am 20.3 18.7 10.1 52 5.5 WSW 9 11 5 6 1017.4 1017.4 0.0
20/10:30am 20.7 19.0 9.7 49 5.9 WNW 9 13 5 7 1017.7 - 0.0
20/10:00am 20.6 18.5 8.3 45 6.4 WNW 9 15 5 8 1018.0 1018.0 0.0
20/09:30am 19.2 16.4 8.4 49 5.6 WNW 13 15 7 8 1018.3 - 0.0
20/09:00am 17.9 14.9 7.8 51 5.1 NW 13 17 7 9 1018.3 1018.3 0.0
20/08:30am 17.2 14.6 7.9 54 4.7 NW 11 15 6 8 1018.3 - 0.0
20/08:00am 15.5 12.9 7.9 60 3.8 NW 11 15 6 8 1018.2 1018.2 0.0
20/07:30am 14.1 11.5 7.8 66 3.1 NW 11 13 6 7 1017.8 - 0.0
20/07:00am 13.5 10.5 7.8 68 2.8 NNW 13 15 7 8 1017.6 1017.6 0.0
20/06:30am 12.8 10.2 7.7 71 2.5 NW 11 15 6 8 1017.4 - 0.0
20/06:00am 12.6 10.3 7.4 70 2.5 NW 9 13 5 7 1017.1 1017.1 0.0
20/05:30am 13.0 10.3 7.5 69 2.7 NNW 11 11 6 6 1016.9 - 0.0
20/05:00am 12.8 9.7 7.4 69 2.6 NW 13 15 7 8 1016.8 1016.8 0.0
20/04:30am 13.2 10.5 7.5 68 2.8 NNW 11 13 6 7 1016.8 - 0.0
20/04:00am 13.2 10.2 7.5 68 2.8 NNW 13 15 7 8 1016.6 1016.6 0.0
20/03:30am 13.4 10.4 7.5 67 2.9 N 13 15 7 8 1016.7 - 0.0
20/03:00am 13.3 10.3 7.8 69 2.7 NNW 13 17 7 9 1016.8 1016.8 0.0
20/02:30am 14.0 11.4 7.7 66 3.1 NNW 11 13 6 7 1016.8 - 0.0
20/02:00am 14.2 11.2 7.7 65 3.2 NNW 13 13 7 7 1017.1 1017.1 0.0
20/01:30am 14.3 12.0 7.6 64 3.3 N 9 11 5 6 1017.2 - 0.0
20/01:00am 15.6 12.9 7.5 58 4.0 NNW 11 15 6 8 1017.4 1017.4 0.0
20/12:00am 15.9 12.4 7.4 57 4.2 W 15 17 8 9 1017.8 1017.8 0.0
 
Date/Time
EST
Temp
°C
App
Temp
°C
Dew
Point
Rel
Hum
%
Delta-T
°C
Wind Press
QNH
hPa
Press
MSL
hPa
Rain
since 9 am
mm
Dir
 
Spd
km/h
Gust
km/h
Spd
kts
Gust
kts
19/11:30pm 15.9 12.8 7.4 57 4.2 W 13 17 7 9 1017.9 - 0.0
19/11:00pm 15.9 12.1 7.4 57 4.2 W 17 20 9 11 1017.9 1017.9 0.0
19/10:30pm 16.2 12.4 7.6 56 4.3 W 17 39 9 21 1018.1 - 0.0
19/10:00pm 16.4 12.6 7.6 56 4.4 W 17 20 9 11 1018.1 1018.1 0.0
19/09:30pm 17.0 13.2 7.4 53 4.8 W 17 28 9 15 1018.0 - 0.0
19/09:00pm 17.0 13.6 7.6 54 4.7 W 15 17 8 9 1017.9 1017.9 0.0
19/08:30pm 17.5 14.6 8.1 54 4.8 SW 13 19 7 10 1017.7 - 0.0
19/08:00pm 18.8 15.1 9.3 54 5.0 S 19 26 10 14 1017.3 1017.3 0.0
19/07:30pm 18.5 14.0 10.0 57 4.5 S 24 30 13 16 1016.9 - 0.0
19/07:00pm 18.6 14.2 9.0 53 5.0 S 22 28 12 15 1016.6 1016.6 0.0
19/06:30pm 18.4 13.0 7.8 50 5.4 S 26 32 14 17 1016.2 - 0.0
19/06:00pm 18.6 13.4 8.8 53 5.1 S 26 32 14 17 1015.8 1015.8 0.0
19/05:30pm 18.5 12.9 8.9 53 5.0 S 28 35 15 19 1015.4 - 0.0
19/05:00pm 18.7 12.7 7.2 47 5.8 S 28 35 15 19 1015.3 1015.3 0.0
19/04:30pm 18.6 12.5 8.1 50 5.4 S 30 41 16 22 1015.2 - 0.0
19/04:00pm 18.9 13.4 9.2 53 5.1 SSE 28 35 15 19 1015.1 1015.1 0.0
19/03:30pm 18.8 13.3 9.0 53 5.1 S 28 35 15 19 1015.0 - 0.0
19/03:00pm 18.8 12.8 8.6 51 5.3 S 30 39 16 21 1015.0 1015.0 0.0
19/02:30pm 18.9 12.7 9.2 53 5.1 S 32 39 17 21 1014.9 - 0.0
19/02:00pm 19.1 13.4 9.7 54 5.0 S 30 37 16 20 1014.8 1014.8 0.0
19/01:30pm 19.0 13.4 8.6 51 5.4 S 28 32 15 17 1014.9 - 0.0
19/01:00pm 19.3 13.6 8.3 49 5.7 S 28 37 15 20 1015.1 1015.1 0.0
19/12:30pm 19.0 13.9 9.1 52 5.2 S 26 33 14 18 1015.5 - 0.0
19/12:00pm 19.1 13.4 8.2 49 5.6 S 28 33 15 18 1015.9 1015.9 0.0
19/11:30am 19.0 13.3 8.3 50 5.5 S 28 33 15 18 1016.1 - 0.0
19/11:00am 19.0 14.1 9.8 55 4.9 S 26 33 14 18 1016.4 1016.4 0.0
19/10:30am 19.0 13.7 9.8 55 4.9 S 28 35 15 19 1016.6 - 0.0
19/10:13am 18.8 13.6 10.2 57 4.6 S 28 54 15 29 1016.6 - 0.0
19/10:00am 18.9 13.7 10.3 57 4.6 S 28 37 15 20 1016.5 1016.5 0.0
19/09:30am 18.8 14.1 10.8 59 4.3 S 26 39 14 21 1016.5 - 0.0
19/09:00am 18.7 14.3 11.6 63 3.9 SSW 26 30 14 16 1016.5 1016.5 0.0
19/08:30am 18.6 15.5 12.1 66 3.6 S 20 26 11 14 1016.6 - 0.0
19/08:00am 17.9 15.1 12.5 70 3.0 SSW 19 22 10 12 1016.4 1016.4 0.0
19/07:30am 17.3 14.4 12.4 73 2.7 SW 19 24 10 13 1016.1 - 0.0
19/07:00am 16.8 13.9 12.4 75 2.4 SSW 19 20 10 11 1015.8 1015.8 0.0
19/06:30am 16.4 13.4 12.0 75 2.4 SW 19 24 10 13 1015.6 - 0.0
19/06:00am 16.6 13.6 12.0 74 2.5 SW 19 26 10 14 1015.4 1015.4 0.0
19/05:30am 16.8 14.0 12.6 76 2.3 SW 19 22 10 12 1015.2 - 0.0
19/05:00am 16.7 14.3 12.7 77 2.2 SW 17 20 9 11 1015.0 1015.0 0.0
19/04:30am 16.8 14.4 12.8 77 2.2 SW 17 19 9 10 1014.8 - 0.0
19/04:00am 17.4 15.1 13.1 76 2.4 SW 17 24 9 13 1014.6 1014.6 0.0
19/03:30am 17.8 15.1 12.8 72 2.8 WSW 19 20 10 11 1014.4 - 0.0
19/03:00am 17.8 15.5 11.8 68 3.3 WSW 15 17 8 9 1014.3 1014.3 0.0
19/02:30am 17.6 15.3 10.5 63 3.8 WSW 13 15 7 8 1014.3 - 0.0
19/02:00am 18.3 16.1 10.9 62 4.0 WSW 13 15 7 8 1014.3 1014.3 0.0
19/01:30am 17.1 14.3 8.7 57 4.3 WSW 13 15 7 8 1014.4 - 0.0
19/01:00am 16.8 14.8 8.6 58 4.2 WSW 9 13 5 7 1014.4 1014.4 0.0
19/12:30am 17.1 14.0 8.7 57 4.3 WNW 15 17 8 9 1014.1 - 0.0
19/12:00am 17.3 13.7 8.3 55 4.6 W 17 24 9 13 1013.9 1013.9 0.0
 
Date/Time
EST
Temp
°C
App
Temp
°C
Dew
Point
Rel
Hum
%
Delta-T
°C
Wind Press
QNH
hPa
Press
MSL
hPa
Rain
since 9 am
mm
Dir
 
Spd
km/h
Gust
km/h
Spd
kts
Gust
kts
18/11:30pm 18.0 15.1 8.0 52 5.1 W 13 17 7 9 1013.7 - 0.0
18/11:00pm 18.9 15.1 7.7 48 5.7 WNW 17 20 9 11 1013.6 1013.6 0.0
18/10:30pm 19.5 15.3 7.6 46 6.1 WNW 19 24 10 13 1013.6 - 0.0
18/10:00pm 20.0 15.8 7.5 44 6.4 WNW 19 24 10 13 1013.7 1013.7 0.0
18/09:30pm 20.0 14.5 7.5 44 6.4 WNW 26 33 14 18 1013.7 - 0.0
18/09:00pm 20.1 16.4 7.9 45 6.3 WNW 17 20 9 11 1014.0 1014.0 0.0
18/08:30pm 20.7 16.6 8.0 44 6.6 WNW 19 26 10 14 1013.8 - 0.0
18/08:00pm 20.9 17.6 8.0 43 6.7 WSW 15 19 8 10 1013.8 1013.8 0.0
18/07:30pm 21.3 18.3 7.6 41 7.1 W 13 15 7 8 1013.6 - 0.0
18/07:00pm 21.5 18.5 7.8 41 7.1 W 13 17 7 9 1013.3 1013.3 0.0
18/06:30pm 20.1 19.0 13.1 64 4.0 SW 11 13 6 7 1013.2 - 0.0
18/06:00pm 19.8 19.6 14.8 73 2.9 S 9 11 5 6 1013.0 1013.0 0.0
18/05:30pm 20.9 19.5 12.2 57 4.9 SSE 11 13 6 7 1012.7 - 0.0
18/05:00pm 21.9 20.6 11.3 51 5.9 SSE 9 13 5 7 1012.4 1012.4 0.0
18/04:30pm 22.3 19.9 10.2 46 6.6 SE 13 15 7 8 1011.9 - 0.0
18/04:00pm 22.2 20.6 13.8 59 4.9 SSE 15 19 8 10 1011.8 1011.8 0.0
18/03:30pm 23.2 19.9 11.6 48 6.5 S 20 26 11 14 1011.7 - 0.0
18/03:00pm 25.8 20.9 7.0 30 9.9 W 22 30 12 16 1011.6 1011.6 0.0
18/02:30pm 26.0 21.4 6.4 28 10.2 W 20 28 11 15 1011.7 - 0.0
18/02:00pm 24.6 20.4 8.1 35 8.8 W 20 30 11 16 1012.1 1012.1 0.0
18/01:30pm 25.4 22.0 7.7 32 9.4 W 15 22 8 12 1012.3 - 0.0
18/01:00pm 24.2 20.0 8.2 36 8.5 W 20 28 11 15 1012.7 1012.7 0.0
18/12:30pm 24.2 20.0 7.4 34 8.8 W 19 28 10 15 1013.2 - 0.0
18/12:00pm 23.6 18.5 7.8 36 8.3 W 24 32 13 17 1013.8 1013.8 0.0
18/11:30am 22.4 16.6 8.1 40 7.5 W 28 33 15 18 1014.5 - 0.0
18/11:00am 22.4 16.6 8.1 40 7.5 W 28 35 15 19 1015.0 1015.0 0.0
18/10:30am 21.8 17.2 9.5 45 6.6 W 24 41 13 22 1015.5 - 0.0
18/10:00am 20.6 16.7 9.3 48 6.0 W 20 30 11 16 1015.9 1015.9 0.0
18/09:30am 19.4 15.8 10.0 54 5.0 W 19 30 10 16 1016.2 - 0.0
18/09:00am 18.1 14.8 9.5 57 4.5 WNW 17 22 9 12 1016.3 1016.3 0.0
18/08:30am 17.4 13.5 9.6 60 4.1 WNW 20 28 11 15 1016.6 - 0.0
18/08:00am 16.3 12.5 9.8 65 3.4 WNW 20 28 11 15 1016.6 1016.6 0.0
18/07:30am 15.0 10.9 10.2 73 2.5 WNW 22 30 12 16 1016.7 - 0.0
18/07:00am 14.3 11.2 10.3 77 2.1 WNW 17 24 9 13 1016.6 1016.6 0.0
18/06:30am 13.2 10.1 10.3 82 1.5 WNW 17 19 9 10 1016.5 - 0.0
18/06:00am 13.5 11.1 10.2 80 1.7 NNW 13 15 7 8 1016.4 1016.4 0.0
18/05:30am 14.0 11.7 10.3 78 1.9 NW 13 15 7 8 1016.5 - 0.0
18/05:00am 13.7 11.3 10.2 79 1.8 NW 13 17 7 9 1016.6 1016.6 0.0
18/04:30am 14.1 11.4 10.5 79 1.9 NW 15 19 8 10 1016.7 - 0.0
18/04:00am 14.3 12.0 10.5 78 2.0 NNW 13 15 7 8 1016.9 1016.9 0.0
18/03:30am 14.4 12.5 10.6 78 2.0 NW 11 13 6 7 1017.0 - 0.0
18/03:00am 14.3 12.4 10.5 78 2.0 NNW 11 15 6 8 1017.1 1017.1 0.0
18/02:30am 14.5 12.2 10.5 77 2.1 NW 13 19 7 10 1017.1 - 0.0
18/02:00am 15.5 13.6 10.6 72 2.6 W 11 15 6 8 1017.3 1017.3 0.0
18/01:30am 15.0 11.5 10.8 76 2.2 W 20 26 11 14 1017.5 - 0.0
18/01:00am 15.2 11.8 11.1 76 2.2 W 20 26 11 14 1017.6 1017.6 0.0
18/12:30am 15.4 11.6 11.1 75 2.3 W 22 26 12 14 1018.0 - 0.0
18/12:00am 15.7 11.9 11.2 74 2.4 WNW 22 28 12 15 1018.3 1018.3 0.0
 
Date/Time
EST
Temp
°C
App
Temp
°C
Dew
Point
Rel
Hum
%
Delta-T
°C
Wind Press
QNH
hPa
Press
MSL
hPa
Rain
since 9 am
mm
Dir
 
Spd
km/h
Gust
km/h
Spd
kts
Gust
kts
17/11:30pm 16.3 13.0 11.5 73 2.6 W 20 24 11 13 1018.5 - 0.0
17/11:00pm 16.9 13.7 12.0 73 2.7 W 20 26 11 14 1018.8 1018.8 0.0
17/10:30pm 16.8 13.7 12.2 74 2.5 W 20 43 11 23 1019.1 - 0.0
17/10:00pm 17.3 14.6 12.8 75 2.5 WNW 19 22 10 12 1019.1 1019.1 0.0
17/09:30pm 18.2 15.9 13.0 71 2.9 WNW 17 30 9 16 1019.2 - 0.0
17/09:00pm 18.4 15.8 13.1 71 3.0 W 19 28 10 15 1019.1 1019.1 0.0

Other Formats:

Comma delimited format used in spreadsheet applications
http://www.bom.gov.au/fwo/IDN60801/IDN60801.94767.axf

JavaScript Object Notation format (JSON) in row-major order
http://www.bom.gov.au/fwo/IDN60801/IDN60801.94767.json